sensor_id;sensor_type;location;lat;lon;timestamp;P1;durP1;ratioP1;P2;durP2;ratioP2
11638;SDS011;5875;35.940;126.892;2023-12-28T00:02:17;5.93;;;4.70;;
11638;SDS011;5875;35.940;126.892;2023-12-28T00:04:44;5.57;;;3.47;;
11638;SDS011;5875;35.940;126.892;2023-12-28T00:07:11;5.97;;;4.33;;
11638;SDS011;5875;35.940;126.892;2023-12-28T00:09:39;6.33;;;4.57;;
11638;SDS011;5875;35.940;126.892;2023-12-28T00:12:06;5.77;;;5.17;;
11638;SDS011;5875;35.940;126.892;2023-12-28T00:14:36;4.23;;;3.83;;
11638;SDS011;5875;35.940;126.892;2023-12-28T00:17:03;6.40;;;4.53;;
11638;SDS011;5875;35.940;126.892;2023-12-28T00:19:31;6.30;;;4.93;;
11638;SDS011;5875;35.940;126.892;2023-12-28T00:21:58;5.97;;;5.37;;
11638;SDS011;5875;35.940;126.892;2023-12-28T00:24:25;5.93;;;5.17;;
11638;SDS011;5875;35.940;126.892;2023-12-28T00:26:52;8.73;;;5.30;;
11638;SDS011;5875;35.940;126.892;2023-12-28T00:29:19;4.03;;;3.73;;
11638;SDS011;5875;35.940;126.892;2023-12-28T00:31:46;8.37;;;5.63;;
11638;SDS011;5875;35.940;126.892;2023-12-28T00:34:13;5.80;;;5.23;;
11638;SDS011;5875;35.940;126.892;2023-12-28T00:36:43;5.47;;;4.30;;
11638;SDS011;5875;35.940;126.892;2023-12-28T00:39:10;5.37;;;3.77;;
11638;SDS011;5875;35.940;126.892;2023-12-28T00:41:37;6.27;;;4.37;;
11638;SDS011;5875;35.940;126.892;2023-12-28T00:44:04;7.07;;;4.60;;
11638;SDS011;5875;35.940;126.892;2023-12-28T00:46:37;6.57;;;4.60;;
11638;SDS011;5875;35.940;126.892;2023-12-28T00:49:05;6.40;;;3.87;;
11638;SDS011;5875;35.940;126.892;2023-12-28T00:51:33;8.57;;;4.10;;
11638;SDS011;5875;35.940;126.892;2023-12-28T00:54:01;5.63;;;4.23;;
11638;SDS011;5875;35.940;126.892;2023-12-28T00:56:28;4.87;;;4.47;;
11638;SDS011;5875;35.940;126.892;2023-12-28T00:58:55;5.87;;;4.43;;
11638;SDS011;5875;35.940;126.892;2023-12-28T01:01:22;5.07;;;4.57;;
11638;SDS011;5875;35.940;126.892;2023-12-28T01:03:49;5.53;;;3.43;;
11638;SDS011;5875;35.940;126.892;2023-12-28T01:06:16;6.23;;;5.57;;
11638;SDS011;5875;35.940;126.892;2023-12-28T01:08:43;7.13;;;5.10;;
11638;SDS011;5875;35.940;126.892;2023-12-28T01:11:11;5.37;;;4.73;;
11638;SDS011;5875;35.940;126.892;2023-12-28T01:13:38;4.70;;;4.30;;
11638;SDS011;5875;35.940;126.892;2023-12-28T01:16:05;4.30;;;3.90;;
11638;SDS011;5875;35.940;126.892;2023-12-28T01:18:32;15.53;;;5.67;;
11638;SDS011;5875;35.940;126.892;2023-12-28T01:20:59;4.87;;;4.30;;
11638;SDS011;5875;35.940;126.892;2023-12-28T01:23:27;3.23;;;3.07;;
11638;SDS011;5875;35.940;126.892;2023-12-28T01:25:55;5.27;;;3.53;;
11638;SDS011;5875;35.940;126.892;2023-12-28T01:28:22;5.50;;;4.53;;
11638;SDS011;5875;35.940;126.892;2023-12-28T01:30:49;4.53;;;4.13;;
11638;SDS011;5875;35.940;126.892;2023-12-28T01:33:16;4.47;;;3.80;;
11638;SDS011;5875;35.940;126.892;2023-12-28T01:35:43;4.07;;;3.80;;
11638;SDS011;5875;35.940;126.892;2023-12-28T01:38:10;2.87;;;2.67;;
11638;SDS011;5875;35.940;126.892;2023-12-28T01:40:37;5.00;;;4.57;;
11638;SDS011;5875;35.940;126.892;2023-12-28T01:43:12;5.00;;;3.73;;
11638;SDS011;5875;35.940;126.892;2023-12-28T01:45:39;6.37;;;4.47;;
11638;SDS011;5875;35.940;126.892;2023-12-28T01:48:06;4.73;;;4.33;;
11638;SDS011;5875;35.940;126.892;2023-12-28T01:50:34;9.30;;;6.00;;
11638;SDS011;5875;35.940;126.892;2023-12-28T01:53:02;3.87;;;3.30;;
11638;SDS011;5875;35.940;126.892;2023-12-28T01:55:30;4.43;;;4.03;;
11638;SDS011;5875;35.940;126.892;2023-12-28T01:57:57;4.50;;;4.10;;
11638;SDS011;5875;35.940;126.892;2023-12-28T02:00:24;5.40;;;4.90;;
11638;SDS011;5875;35.940;126.892;2023-12-28T02:02:52;4.47;;;4.10;;
11638;SDS011;5875;35.940;126.892;2023-12-28T02:05:19;7.90;;;4.03;;
11638;SDS011;5875;35.940;126.892;2023-12-28T02:07:47;4.53;;;4.10;;
11638;SDS011;5875;35.940;126.892;2023-12-28T02:10:14;9.20;;;7.57;;
11638;SDS011;5875;35.940;126.892;2023-12-28T02:12:41;4.87;;;4.50;;
11638;SDS011;5875;35.940;126.892;2023-12-28T02:15:08;6.60;;;5.83;;
11638;SDS011;5875;35.940;126.892;2023-12-28T02:17:38;5.50;;;5.10;;
11638;SDS011;5875;35.940;126.892;2023-12-28T02:20:08;6.67;;;4.40;;
11638;SDS011;5875;35.940;126.892;2023-12-28T02:22:36;3.97;;;3.57;;
11638;SDS011;5875;35.940;126.892;2023-12-28T02:25:06;5.83;;;5.07;;
11638;SDS011;5875;35.940;126.892;2023-12-28T02:27:38;6.83;;;5.77;;
11638;SDS011;5875;35.940;126.892;2023-12-28T02:30:08;3.67;;;3.37;;
11638;SDS011;5875;35.940;126.892;2023-12-28T02:37:55;7.43;;;4.37;;
11638;SDS011;5875;35.940;126.892;2023-12-28T02:40:25;5.30;;;3.67;;
11638;SDS011;5875;35.940;126.892;2023-12-28T02:42:53;2.73;;;2.53;;
11638;SDS011;5875;35.940;126.892;2023-12-28T02:45:20;5.40;;;4.90;;
11638;SDS011;5875;35.940;126.892;2023-12-28T02:47:48;5.47;;;4.97;;
11638;SDS011;5875;35.940;126.892;2023-12-28T02:50:15;2.80;;;2.57;;
11638;SDS011;5875;35.940;126.892;2023-12-28T02:52:42;4.60;;;3.30;;
11638;SDS011;5875;35.940;126.892;2023-12-28T02:55:09;7.50;;;5.87;;
11638;SDS011;5875;35.940;126.892;2023-12-28T02:57:37;7.83;;;4.73;;
11638;SDS011;5875;35.940;126.892;2023-12-28T03:00:05;5.83;;;5.27;;
11638;SDS011;5875;35.940;126.892;2023-12-28T03:02:35;3.80;;;3.60;;
11638;SDS011;5875;35.940;126.892;2023-12-28T03:05:05;5.33;;;4.77;;
11638;SDS011;5875;35.940;126.892;2023-12-28T03:07:33;3.47;;;3.27;;
11638;SDS011;5875;35.940;126.892;2023-12-28T03:10:01;4.73;;;2.47;;
11638;SDS011;5875;35.940;126.892;2023-12-28T03:12:28;3.97;;;3.63;;
11638;SDS011;5875;35.940;126.892;2023-12-28T03:14:56;2.80;;;2.60;;
11638;SDS011;5875;35.940;126.892;2023-12-28T03:17:23;3.13;;;2.60;;
11638;SDS011;5875;35.940;126.892;2023-12-28T03:19:50;3.30;;;3.03;;
11638;SDS011;5875;35.940;126.892;2023-12-28T03:22:17;5.20;;;4.70;;
11638;SDS011;5875;35.940;126.892;2023-12-28T03:24:46;2.57;;;2.37;;
11638;SDS011;5875;35.940;126.892;2023-12-28T03:27:13;4.07;;;3.70;;
11638;SDS011;5875;35.940;126.892;2023-12-28T03:29:41;4.77;;;4.10;;
11638;SDS011;5875;35.940;126.892;2023-12-28T03:32:08;5.07;;;2.90;;
11638;SDS011;5875;35.940;126.892;2023-12-28T03:34:36;2.73;;;2.53;;
11638;SDS011;5875;35.940;126.892;2023-12-28T03:37:03;2.93;;;2.73;;
11638;SDS011;5875;35.940;126.892;2023-12-28T03:39:30;5.60;;;2.97;;
11638;SDS011;5875;35.940;126.892;2023-12-28T03:41:58;2.83;;;2.63;;
11638;SDS011;5875;35.940;126.892;2023-12-28T03:44:25;2.97;;;2.77;;
11638;SDS011;5875;35.940;126.892;2023-12-28T03:46:53;2.83;;;2.63;;
11638;SDS011;5875;35.940;126.892;2023-12-28T03:49:20;4.57;;;4.23;;
11638;SDS011;5875;35.940;126.892;2023-12-28T03:51:48;3.63;;;3.40;;
11638;SDS011;5875;35.940;126.892;2023-12-28T03:54:16;7.43;;;4.73;;
11638;SDS011;5875;35.940;126.892;2023-12-28T03:56:44;10.10;;;6.83;;
11638;SDS011;5875;35.940;126.892;2023-12-28T03:59:12;3.80;;;3.50;;
11638;SDS011;5875;35.940;126.892;2023-12-28T04:01:40;4.23;;;3.93;;
11638;SDS011;5875;35.940;126.892;2023-12-28T04:04:08;2.50;;;2.40;;
11638;SDS011;5875;35.940;126.892;2023-12-28T04:06:36;5.03;;;3.93;;
11638;SDS011;5875;35.940;126.892;2023-12-28T04:09:04;4.07;;;3.73;;
11638;SDS011;5875;35.940;126.892;2023-12-28T04:11:31;2.87;;;2.23;;
11638;SDS011;5875;35.940;126.892;2023-12-28T04:13:58;3.53;;;3.33;;
11638;SDS011;5875;35.940;126.892;2023-12-28T04:16:25;2.90;;;2.70;;
11638;SDS011;5875;35.940;126.892;2023-12-28T04:18:52;2.37;;;1.37;;
11638;SDS011;5875;35.940;126.892;2023-12-28T04:21:19;1.43;;;1.37;;
11638;SDS011;5875;35.940;126.892;2023-12-28T04:23:47;2.10;;;1.70;;
11638;SDS011;5875;35.940;126.892;2023-12-28T04:26:17;5.57;;;3.23;;
11638;SDS011;5875;35.940;126.892;2023-12-28T04:28:47;4.50;;;2.33;;
11638;SDS011;5875;35.940;126.892;2023-12-28T04:31:17;3.00;;;2.13;;
11638;SDS011;5875;35.940;126.892;2023-12-28T04:33:47;4.53;;;2.83;;
11638;SDS011;5875;35.940;126.892;2023-12-28T04:36:14;2.10;;;1.23;;
11638;SDS011;5875;35.940;126.892;2023-12-28T04:38:41;2.93;;;1.87;;
11638;SDS011;5875;35.940;126.892;2023-12-28T04:41:09;1.63;;;1.53;;
11638;SDS011;5875;35.940;126.892;2023-12-28T04:43:39;0.57;;;0.57;;
11638;SDS011;5875;35.940;126.892;2023-12-28T04:46:06;1.80;;;1.70;;
11638;SDS011;5875;35.940;126.892;2023-12-28T04:48:34;2.70;;;1.93;;
11638;SDS011;5875;35.940;126.892;2023-12-28T04:51:04;1.20;;;1.10;;
11638;SDS011;5875;35.940;126.892;2023-12-28T04:53:31;1.97;;;1.07;;
11638;SDS011;5875;35.940;126.892;2023-12-28T04:55:59;1.80;;;1.07;;
11638;SDS011;5875;35.940;126.892;2023-12-28T04:58:26;4.43;;;4.07;;
11638;SDS011;5875;35.940;126.892;2023-12-28T05:00:53;0.43;;;0.43;;
11638;SDS011;5875;35.940;126.892;2023-12-28T05:03:23;1.17;;;1.17;;
11638;SDS011;5875;35.940;126.892;2023-12-28T05:05:50;0.33;;;0.33;;
11638;SDS011;5875;35.940;126.892;2023-12-28T05:08:17;2.83;;;2.00;;
11638;SDS011;5875;35.940;126.892;2023-12-28T05:10:44;2.37;;;1.50;;
11638;SDS011;5875;35.940;126.892;2023-12-28T05:13:11;0.67;;;0.67;;
11638;SDS011;5875;35.940;126.892;2023-12-28T05:15:38;1.00;;;0.93;;
11638;SDS011;5875;35.940;126.892;2023-12-28T05:18:05;0.57;;;0.57;;
11638;SDS011;5875;35.940;126.892;2023-12-28T05:20:35;0.47;;;0.47;;
11638;SDS011;5875;35.940;126.892;2023-12-28T05:23:02;0.53;;;0.53;;
11638;SDS011;5875;35.940;126.892;2023-12-28T05:25:29;0.50;;;0.50;;
11638;SDS011;5875;35.940;126.892;2023-12-28T05:28:00;0.73;;;0.73;;
11638;SDS011;5875;35.940;126.892;2023-12-28T05:30:27;1.10;;;1.10;;
11638;SDS011;5875;35.940;126.892;2023-12-28T05:32:54;5.03;;;1.30;;
11638;SDS011;5875;35.940;126.892;2023-12-28T05:35:21;0.80;;;0.80;;
11638;SDS011;5875;35.940;126.892;2023-12-28T05:37:51;0.30;;;0.30;;
11638;SDS011;5875;35.940;126.892;2023-12-28T05:40:18;2.90;;;2.20;;
11638;SDS011;5875;35.940;126.892;2023-12-28T05:42:45;4.20;;;2.20;;
11638;SDS011;5875;35.940;126.892;2023-12-28T05:45:12;0.83;;;0.83;;
11638;SDS011;5875;35.940;126.892;2023-12-28T05:47:39;0.97;;;0.97;;
11638;SDS011;5875;35.940;126.892;2023-12-28T05:50:06;1.60;;;1.50;;
11638;SDS011;5875;35.940;126.892;2023-12-28T05:52:36;3.77;;;2.40;;
11638;SDS011;5875;35.940;126.892;2023-12-28T05:55:04;1.60;;;1.50;;
11638;SDS011;5875;35.940;126.892;2023-12-28T05:57:31;1.80;;;1.70;;
11638;SDS011;5875;35.940;126.892;2023-12-28T05:59:59;0.73;;;0.73;;
11638;SDS011;5875;35.940;126.892;2023-12-28T06:02:26;2.03;;;1.00;;
11638;SDS011;5875;35.940;126.892;2023-12-28T06:04:54;0.77;;;0.77;;
11638;SDS011;5875;35.940;126.892;2023-12-28T06:07:21;1.23;;;0.27;;
11638;SDS011;5875;35.940;126.892;2023-12-28T06:09:48;2.47;;;2.27;;
11638;SDS011;5875;35.940;126.892;2023-12-28T06:12:15;0.17;;;0.17;;
11638;SDS011;5875;35.940;126.892;2023-12-28T06:14:42;0.70;;;0.70;;
11638;SDS011;5875;35.940;126.892;2023-12-28T06:17:09;1.63;;;1.40;;
11638;SDS011;5875;35.940;126.892;2023-12-28T06:19:36;3.47;;;1.17;;
11638;SDS011;5875;35.940;126.892;2023-12-28T06:22:07;2.23;;;1.27;;
11638;SDS011;5875;35.940;126.892;2023-12-28T06:24:37;0.87;;;0.87;;
11638;SDS011;5875;35.940;126.892;2023-12-28T06:27:07;0.50;;;0.50;;
11638;SDS011;5875;35.940;126.892;2023-12-28T06:29:34;0.70;;;0.70;;
11638;SDS011;5875;35.940;126.892;2023-12-28T06:32:01;1.50;;;1.40;;
11638;SDS011;5875;35.940;126.892;2023-12-28T06:34:29;4.53;;;2.63;;
11638;SDS011;5875;35.940;126.892;2023-12-28T06:36:56;1.07;;;1.07;;
11638;SDS011;5875;35.940;126.892;2023-12-28T06:39:23;2.17;;;1.47;;
11638;SDS011;5875;35.940;126.892;2023-12-28T06:41:50;2.10;;;1.73;;
11638;SDS011;5875;35.940;126.892;2023-12-28T06:44:17;1.17;;;1.07;;
11638;SDS011;5875;35.940;126.892;2023-12-28T06:46:44;2.70;;;1.23;;
11638;SDS011;5875;35.940;126.892;2023-12-28T06:49:11;1.13;;;1.13;;
11638;SDS011;5875;35.940;126.892;2023-12-28T06:51:38;1.67;;;1.33;;
11638;SDS011;5875;35.940;126.892;2023-12-28T06:54:06;0.77;;;0.77;;
11638;SDS011;5875;35.940;126.892;2023-12-28T06:56:33;2.83;;;1.83;;
11638;SDS011;5875;35.940;126.892;2023-12-28T06:59:00;1.63;;;1.07;;
11638;SDS011;5875;35.940;126.892;2023-12-28T07:01:27;1.40;;;1.30;;
11638;SDS011;5875;35.940;126.892;2023-12-28T07:03:54;1.47;;;1.13;;
11638;SDS011;5875;35.940;126.892;2023-12-28T07:06:21;2.53;;;1.47;;
11638;SDS011;5875;35.940;126.892;2023-12-28T07:08:51;2.63;;;2.10;;
11638;SDS011;5875;35.940;126.892;2023-12-28T07:11:18;2.00;;;1.80;;
11638;SDS011;5875;35.940;126.892;2023-12-28T07:13:45;1.10;;;1.10;;
11638;SDS011;5875;35.940;126.892;2023-12-28T07:16:12;0.63;;;0.60;;
11638;SDS011;5875;35.940;126.892;2023-12-28T07:18:39;0.90;;;0.87;;
11638;SDS011;5875;35.940;126.892;2023-12-28T07:21:09;2.10;;;1.63;;
11638;SDS011;5875;35.940;126.892;2023-12-28T07:23:36;2.47;;;2.10;;
11638;SDS011;5875;35.940;126.892;2023-12-28T07:26:06;1.77;;;1.67;;
11638;SDS011;5875;35.940;126.892;2023-12-28T07:28:33;2.53;;;2.33;;
11638;SDS011;5875;35.940;126.892;2023-12-28T07:31:01;2.17;;;2.00;;
11638;SDS011;5875;35.940;126.892;2023-12-28T07:33:28;1.33;;;1.30;;
11638;SDS011;5875;35.940;126.892;2023-12-28T07:35:55;1.80;;;1.70;;
11638;SDS011;5875;35.940;126.892;2023-12-28T07:38:28;3.60;;;1.60;;
11638;SDS011;5875;35.940;126.892;2023-12-28T07:40:55;3.20;;;3.00;;
11638;SDS011;5875;35.940;126.892;2023-12-28T07:43:22;1.93;;;1.63;;
11638;SDS011;5875;35.940;126.892;2023-12-28T07:45:49;1.10;;;1.07;;
11638;SDS011;5875;35.940;126.892;2023-12-28T07:48:16;1.87;;;1.20;;
11638;SDS011;5875;35.940;126.892;2023-12-28T07:50:43;1.50;;;1.40;;
11638;SDS011;5875;35.940;126.892;2023-12-28T07:53:10;1.33;;;1.23;;
11638;SDS011;5875;35.940;126.892;2023-12-28T07:55:37;5.90;;;2.93;;
11638;SDS011;5875;35.940;126.892;2023-12-28T07:58:04;3.10;;;2.80;;
11638;SDS011;5875;35.940;126.892;2023-12-28T08:00:31;9.17;;;7.20;;
11638;SDS011;5875;35.940;126.892;2023-12-28T08:03:01;0.83;;;0.83;;
11638;SDS011;5875;35.940;126.892;2023-12-28T08:05:28;2.10;;;1.60;;
11638;SDS011;5875;35.940;126.892;2023-12-28T08:07:56;1.13;;;0.97;;
11638;SDS011;5875;35.940;126.892;2023-12-28T08:10:26;1.50;;;1.50;;
11638;SDS011;5875;35.940;126.892;2023-12-28T08:12:53;2.37;;;2.17;;
11638;SDS011;5875;35.940;126.892;2023-12-28T08:15:20;0.50;;;0.50;;
11638;SDS011;5875;35.940;126.892;2023-12-28T08:17:47;3.10;;;2.63;;
11638;SDS011;5875;35.940;126.892;2023-12-28T08:20:14;4.07;;;2.53;;
11638;SDS011;5875;35.940;126.892;2023-12-28T08:22:42;4.33;;;2.80;;
11638;SDS011;5875;35.940;126.892;2023-12-28T08:25:09;1.83;;;1.73;;
11638;SDS011;5875;35.940;126.892;2023-12-28T08:27:36;1.97;;;1.50;;
11638;SDS011;5875;35.940;126.892;2023-12-28T08:30:04;3.37;;;3.07;;
11638;SDS011;5875;35.940;126.892;2023-12-28T08:32:32;2.73;;;2.57;;
11638;SDS011;5875;35.940;126.892;2023-12-28T08:35:02;2.67;;;2.47;;
11638;SDS011;5875;35.940;126.892;2023-12-28T08:37:29;2.17;;;2.07;;
11638;SDS011;5875;35.940;126.892;2023-12-28T08:39:56;3.70;;;1.90;;
11638;SDS011;5875;35.940;126.892;2023-12-28T08:42:27;1.73;;;1.63;;
11638;SDS011;5875;35.940;126.892;2023-12-28T08:44:56;2.53;;;2.00;;
11638;SDS011;5875;35.940;126.892;2023-12-28T08:47:23;2.80;;;1.83;;
11638;SDS011;5875;35.940;126.892;2023-12-28T08:49:51;3.03;;;2.03;;
11638;SDS011;5875;35.940;126.892;2023-12-28T08:52:18;1.20;;;1.20;;
11638;SDS011;5875;35.940;126.892;2023-12-28T08:54:45;4.43;;;3.00;;
11638;SDS011;5875;35.940;126.892;2023-12-28T08:57:12;3.33;;;2.30;;
11638;SDS011;5875;35.940;126.892;2023-12-28T08:59:39;1.70;;;1.60;;
11638;SDS011;5875;35.940;126.892;2023-12-28T09:02:06;0.80;;;0.80;;
11638;SDS011;5875;35.940;126.892;2023-12-28T09:04:33;3.23;;;1.93;;
11638;SDS011;5875;35.940;126.892;2023-12-28T09:07:01;3.77;;;2.40;;
11638;SDS011;5875;35.940;126.892;2023-12-28T09:09:28;2.47;;;1.63;;
11638;SDS011;5875;35.940;126.892;2023-12-28T09:11:55;0.77;;;0.77;;
11638;SDS011;5875;35.940;126.892;2023-12-28T09:14:22;2.43;;;1.57;;
11638;SDS011;5875;35.940;126.892;2023-12-28T09:16:52;1.53;;;1.43;;
11638;SDS011;5875;35.940;126.892;2023-12-28T09:19:20;2.37;;;2.00;;
11638;SDS011;5875;35.940;126.892;2023-12-28T09:21:47;0.60;;;0.60;;
11638;SDS011;5875;35.940;126.892;2023-12-28T09:24:16;1.43;;;1.33;;
11638;SDS011;5875;35.940;126.892;2023-12-28T09:26:44;2.27;;;2.17;;
11638;SDS011;5875;35.940;126.892;2023-12-28T09:29:11;1.17;;;1.17;;
11638;SDS011;5875;35.940;126.892;2023-12-28T09:31:39;1.60;;;1.50;;
11638;SDS011;5875;35.940;126.892;2023-12-28T09:34:06;3.10;;;2.80;;
11638;SDS011;5875;35.940;126.892;2023-12-28T09:36:33;3.43;;;3.13;;
11638;SDS011;5875;35.940;126.892;2023-12-28T09:39:01;2.10;;;2.00;;
11638;SDS011;5875;35.940;126.892;2023-12-28T09:41:30;3.90;;;2.80;;
11638;SDS011;5875;35.940;126.892;2023-12-28T09:44:08;2.47;;;2.23;;
11638;SDS011;5875;35.940;126.892;2023-12-28T09:46:42;4.70;;;4.17;;
11638;SDS011;5875;35.940;126.892;2023-12-28T09:49:11;2.30;;;2.10;;
11638;SDS011;5875;35.940;126.892;2023-12-28T09:51:38;2.57;;;1.83;;
11638;SDS011;5875;35.940;126.892;2023-12-28T09:54:06;2.13;;;2.03;;
11638;SDS011;5875;35.940;126.892;2023-12-28T09:56:35;2.10;;;2.00;;
11638;SDS011;5875;35.940;126.892;2023-12-28T09:59:03;4.37;;;1.87;;
11638;SDS011;5875;35.940;126.892;2023-12-28T10:01:34;2.10;;;2.00;;
11638;SDS011;5875;35.940;126.892;2023-12-28T10:04:01;3.57;;;2.27;;
11638;SDS011;5875;35.940;126.892;2023-12-28T10:06:29;2.23;;;2.13;;
11638;SDS011;5875;35.940;126.892;2023-12-28T10:08:56;3.00;;;2.73;;
11638;SDS011;5875;35.940;126.892;2023-12-28T10:11:24;2.63;;;2.47;;
11638;SDS011;5875;35.940;126.892;2023-12-28T10:13:52;3.27;;;2.97;;
11638;SDS011;5875;35.940;126.892;2023-12-28T10:16:20;3.70;;;3.40;;
11638;SDS011;5875;35.940;126.892;2023-12-28T10:18:47;5.43;;;4.27;;
11638;SDS011;5875;35.940;126.892;2023-12-28T10:21:14;1.97;;;1.57;;
11638;SDS011;5875;35.940;126.892;2023-12-28T10:23:41;4.03;;;3.43;;
11638;SDS011;5875;35.940;126.892;2023-12-28T10:26:11;3.87;;;1.53;;
11638;SDS011;5875;35.940;126.892;2023-12-28T10:28:38;4.13;;;2.60;;
11638;SDS011;5875;35.940;126.892;2023-12-28T10:31:06;2.37;;;2.27;;
11638;SDS011;5875;35.940;126.892;2023-12-28T10:33:34;4.43;;;3.87;;
11638;SDS011;5875;35.940;126.892;2023-12-28T10:36:05;4.23;;;3.13;;
11638;SDS011;5875;35.940;126.892;2023-12-28T10:38:34;3.23;;;2.93;;
11638;SDS011;5875;35.940;126.892;2023-12-28T10:41:08;2.43;;;2.33;;
11638;SDS011;5875;35.940;126.892;2023-12-28T10:46:31;3.80;;;3.40;;
11638;SDS011;5875;35.940;126.892;2023-12-28T10:49:05;2.97;;;2.70;;
11638;SDS011;5875;35.940;126.892;2023-12-28T10:51:41;2.50;;;2.37;;
11638;SDS011;5875;35.940;126.892;2023-12-28T10:54:16;3.63;;;3.37;;
11638;SDS011;5875;35.940;126.892;2023-12-28T10:56:45;3.77;;;3.27;;
11638;SDS011;5875;35.940;126.892;2023-12-28T11:02:01;3.63;;;3.23;;
11638;SDS011;5875;35.940;126.892;2023-12-28T11:07:03;2.13;;;2.03;;
11638;SDS011;5875;35.940;126.892;2023-12-28T11:09:31;3.10;;;2.80;;
11638;SDS011;5875;35.940;126.892;2023-12-28T11:11:59;2.03;;;1.90;;
11638;SDS011;5875;35.940;126.892;2023-12-28T11:14:28;3.93;;;3.27;;
11638;SDS011;5875;35.940;126.892;2023-12-28T11:16:58;5.57;;;4.23;;
11638;SDS011;5875;35.940;126.892;2023-12-28T11:19:27;5.30;;;3.53;;
11638;SDS011;5875;35.940;126.892;2023-12-28T11:21:55;6.20;;;3.27;;
11638;SDS011;5875;35.940;126.892;2023-12-28T11:24:26;3.07;;;2.40;;
11638;SDS011;5875;35.940;126.892;2023-12-28T11:27:00;8.20;;;4.70;;
11638;SDS011;5875;35.940;126.892;2023-12-28T11:29:29;3.17;;;2.80;;
11638;SDS011;5875;35.940;126.892;2023-12-28T11:31:57;2.70;;;2.57;;
11638;SDS011;5875;35.940;126.892;2023-12-28T11:34:28;2.90;;;2.57;;
11638;SDS011;5875;35.940;126.892;2023-12-28T11:36:57;5.07;;;4.57;;
11638;SDS011;5875;35.940;126.892;2023-12-28T11:39:30;4.27;;;3.87;;
11638;SDS011;5875;35.940;126.892;2023-12-28T11:42:05;2.87;;;2.67;;
11638;SDS011;5875;35.940;126.892;2023-12-28T11:44:40;3.03;;;2.83;;
11638;SDS011;5875;35.940;126.892;2023-12-28T11:47:16;4.07;;;3.07;;
11638;SDS011;5875;35.940;126.892;2023-12-28T11:49:48;6.60;;;3.43;;
11638;SDS011;5875;35.940;126.892;2023-12-28T11:52:26;3.83;;;3.47;;
11638;SDS011;5875;35.940;126.892;2023-12-28T11:54:55;2.43;;;2.23;;
11638;SDS011;5875;35.940;126.892;2023-12-28T11:57:22;4.67;;;4.13;;
11638;SDS011;5875;35.940;126.892;2023-12-28T11:59:53;2.10;;;1.90;;
11638;SDS011;5875;35.940;126.892;2023-12-28T12:02:24;3.67;;;3.37;;
11638;SDS011;5875;35.940;126.892;2023-12-28T12:04:55;4.83;;;3.40;;
11638;SDS011;5875;35.940;126.892;2023-12-28T12:07:25;5.73;;;3.73;;
11638;SDS011;5875;35.940;126.892;2023-12-28T12:09:57;3.40;;;2.97;;
11638;SDS011;5875;35.940;126.892;2023-12-28T12:12:25;5.10;;;3.73;;
11638;SDS011;5875;35.940;126.892;2023-12-28T12:14:52;3.57;;;3.33;;
11638;SDS011;5875;35.940;126.892;2023-12-28T12:17:19;3.73;;;3.43;;
11638;SDS011;5875;35.940;126.892;2023-12-28T12:19:46;2.60;;;2.40;;
11638;SDS011;5875;35.940;126.892;2023-12-28T12:22:16;4.40;;;2.13;;
11638;SDS011;5875;35.940;126.892;2023-12-28T12:24:44;6.97;;;4.53;;
11638;SDS011;5875;35.940;126.892;2023-12-28T12:27:14;2.93;;;2.77;;
11638;SDS011;5875;35.940;126.892;2023-12-28T12:29:41;2.67;;;2.47;;
11638;SDS011;5875;35.940;126.892;2023-12-28T12:32:09;3.33;;;2.93;;
11638;SDS011;5875;35.940;126.892;2023-12-28T12:34:37;4.40;;;4.00;;
11638;SDS011;5875;35.940;126.892;2023-12-28T12:37:05;4.20;;;3.90;;
11638;SDS011;5875;35.940;126.892;2023-12-28T12:39:32;6.63;;;3.80;;
11638;SDS011;5875;35.940;126.892;2023-12-28T12:42:01;2.83;;;2.60;;
11638;SDS011;5875;35.940;126.892;2023-12-28T12:44:29;2.50;;;2.40;;
11638;SDS011;5875;35.940;126.892;2023-12-28T12:46:57;3.27;;;2.97;;
11638;SDS011;5875;35.940;126.892;2023-12-28T12:49:25;7.67;;;4.57;;
11638;SDS011;5875;35.940;126.892;2023-12-28T12:51:52;4.43;;;3.33;;
11638;SDS011;5875;35.940;126.892;2023-12-28T12:54:20;3.73;;;3.30;;
11638;SDS011;5875;35.940;126.892;2023-12-28T12:56:47;10.43;;;4.87;;
11638;SDS011;5875;35.940;126.892;2023-12-28T12:59:18;3.13;;;2.83;;
11638;SDS011;5875;35.940;126.892;2023-12-28T13:01:45;3.93;;;3.53;;
11638;SDS011;5875;35.940;126.892;2023-12-28T13:04:16;4.73;;;4.33;;
11638;SDS011;5875;35.940;126.892;2023-12-28T13:06:43;5.37;;;4.97;;
11638;SDS011;5875;35.940;126.892;2023-12-28T13:09:11;9.10;;;4.17;;
11638;SDS011;5875;35.940;126.892;2023-12-28T13:11:38;5.83;;;5.13;;
11638;SDS011;5875;35.940;126.892;2023-12-28T13:14:05;9.30;;;6.60;;
11638;SDS011;5875;35.940;126.892;2023-12-28T13:16:35;7.63;;;4.73;;
11638;SDS011;5875;35.940;126.892;2023-12-28T13:19:02;3.43;;;3.23;;
11638;SDS011;5875;35.940;126.892;2023-12-28T13:21:29;3.50;;;3.27;;
11638;SDS011;5875;35.940;126.892;2023-12-28T13:23:56;8.77;;;5.17;;
11638;SDS011;5875;35.940;126.892;2023-12-28T13:26:25;4.97;;;4.53;;
11638;SDS011;5875;35.940;126.892;2023-12-28T13:28:52;5.57;;;3.67;;
11638;SDS011;5875;35.940;126.892;2023-12-28T13:31:19;3.77;;;3.47;;
11638;SDS011;5875;35.940;126.892;2023-12-28T13:33:46;7.83;;;4.20;;
11638;SDS011;5875;35.940;126.892;2023-12-28T13:36:13;3.77;;;3.47;;
11638;SDS011;5875;35.940;126.892;2023-12-28T13:38:41;9.43;;;5.60;;
11638;SDS011;5875;35.940;126.892;2023-12-28T13:41:08;5.63;;;5.23;;
11638;SDS011;5875;35.940;126.892;2023-12-28T13:43:35;7.10;;;4.60;;
11638;SDS011;5875;35.940;126.892;2023-12-28T13:46:03;5.43;;;4.17;;
11638;SDS011;5875;35.940;126.892;2023-12-28T13:48:30;4.73;;;4.27;;
11638;SDS011;5875;35.940;126.892;2023-12-28T13:50:57;8.40;;;7.07;;
11638;SDS011;5875;35.940;126.892;2023-12-28T13:53:24;4.60;;;3.83;;
11638;SDS011;5875;35.940;126.892;2023-12-28T13:55:51;8.73;;;5.30;;
11638;SDS011;5875;35.940;126.892;2023-12-28T13:58:18;4.13;;;3.73;;
11638;SDS011;5875;35.940;126.892;2023-12-28T14:00:46;4.13;;;3.70;;
11638;SDS011;5875;35.940;126.892;2023-12-28T14:03:13;4.13;;;3.50;;
11638;SDS011;5875;35.940;126.892;2023-12-28T14:05:40;12.37;;;4.53;;
11638;SDS011;5875;35.940;126.892;2023-12-28T14:08:08;3.90;;;3.63;;
11638;SDS011;5875;35.940;126.892;2023-12-28T14:10:35;7.87;;;4.53;;
11638;SDS011;5875;35.940;126.892;2023-12-28T14:13:04;8.37;;;4.90;;
11638;SDS011;5875;35.940;126.892;2023-12-28T14:15:31;4.87;;;4.37;;
11638;SDS011;5875;35.940;126.892;2023-12-28T14:17:58;6.23;;;4.93;;
11638;SDS011;5875;35.940;126.892;2023-12-28T14:20:25;4.80;;;4.50;;
11638;SDS011;5875;35.940;126.892;2023-12-28T14:22:53;4.43;;;3.40;;
11638;SDS011;5875;35.940;126.892;2023-12-28T14:25:20;10.00;;;4.43;;
11638;SDS011;5875;35.940;126.892;2023-12-28T14:27:48;2.83;;;2.63;;
11638;SDS011;5875;35.940;126.892;2023-12-28T14:30:15;6.60;;;4.37;;
11638;SDS011;5875;35.940;126.892;2023-12-28T14:32:43;5.60;;;4.60;;
11638;SDS011;5875;35.940;126.892;2023-12-28T14:35:10;3.83;;;3.53;;
11638;SDS011;5875;35.940;126.892;2023-12-28T14:37:38;6.57;;;4.17;;
11638;SDS011;5875;35.940;126.892;2023-12-28T14:40:05;4.20;;;3.90;;
11638;SDS011;5875;35.940;126.892;2023-12-28T14:42:35;4.60;;;4.13;;
11638;SDS011;5875;35.940;126.892;2023-12-28T14:45:02;9.57;;;4.77;;
11638;SDS011;5875;35.940;126.892;2023-12-28T14:47:29;7.17;;;5.17;;
11638;SDS011;5875;35.940;126.892;2023-12-28T14:49:56;5.47;;;4.37;;
11638;SDS011;5875;35.940;126.892;2023-12-28T14:52:23;7.43;;;5.17;;